Map

Track Data

SID SEASON NUMBER BASIN SUBBASIN NAME ISO_TIME NATURE LAT LON WMO_WIND WMO_PRES WMO_AGENCY TRACK_TYPE DIST2LAND LANDFALL IFLAG USA_AGENCY USA_ATCF_ID USA_LAT USA_LON USA_RECORD USA_STATUS USA_WIND USA_PRES USA_SSHS USA_R34_NE USA_R34_SE USA_R34_SW USA_R34_NW USA_R50_NE USA_R50_SE USA_R50_SW USA_R50_NW USA_R64_NE USA_R64_SE USA_R64_SW USA_R64_NW USA_POCI USA_ROCI USA_RMW USA_EYE TOKYO_LAT TOKYO_LON TOKYO_GRADE TOKYO_WIND TOKYO_PRES TOKYO_R50_DIR TOKYO_R50_LONG TOKYO_R50_SHORT TOKYO_R30_DIR TOKYO_R30_LONG TOKYO_R30_SHORT TOKYO_LAND CMA_LAT CMA_LON CMA_CAT CMA_WIND CMA_PRES HKO_LAT HKO_LON HKO_CAT HKO_WIND HKO_PRES NEWDELHI_LAT NEWDELHI_LON NEWDELHI_GRADE NEWDELHI_WIND NEWDELHI_PRES NEWDELHI_CI NEWDELHI_DP NEWDELHI_POCI REUNION_LAT REUNION_LON REUNION_TYPE REUNION_WIND REUNION_PRES REUNION_TNUM REUNION_CI REUNION_RMW REUNION_R34_NE REUNION_R34_SE REUNION_R34_SW REUNION_R34_NW REUNION_R50_NE REUNION_R50_SE REUNION_R50_SW REUNION_R50_NW REUNION_R64_NE REUNION_R64_SE REUNION_R64_SW REUNION_R64_NW BOM_LAT BOM_LON BOM_TYPE BOM_WIND BOM_PRES BOM_TNUM BOM_CI BOM_RMW BOM_R34_NE BOM_R34_SE BOM_R34_SW BOM_R34_NW BOM_R50_NE BOM_R50_SE BOM_R50_SW BOM_R50_NW BOM_R64_NE BOM_R64_SE BOM_R64_SW BOM_R64_NW BOM_ROCI BOM_POCI BOM_EYE BOM_POS_METHOD BOM_PRES_METHOD NADI_LAT NADI_LON NADI_CAT NADI_WIND NADI_PRES WELLINGTON_LAT WELLINGTON_LON WELLINGTON_WIND WELLINGTON_PRES DS824_LAT DS824_LON DS824_STAGE DS824_WIND DS824_PRES TD9636_LAT TD9636_LON TD9636_STAGE TD9636_WIND TD9636_PRES TD9635_LAT TD9635_LON TD9635_WIND TD9635_PRES TD9635_ROCI NEUMANN_LAT NEUMANN_LON NEUMANN_CLASS NEUMANN_WIND NEUMANN_PRES MLC_LAT MLC_LON MLC_CLASS MLC_WIND MLC_PRES USA_GUST BOM_GUST BOM_GUST_PER REUNION_GUST REUNION_GUST_PER USA_SEAHGT USA_SEARAD_NE USA_SEARAD_SE USA_SEARAD_SW USA_SEARAD_NW STORM_SPEED STORM_DIR
2020279N23139 2020 33 WP MM CHAN-HOM 2020-10-04 18:00:00 NR 22.5000 139.200 PROVISIONAL 1257 1242 O_____________ tcvitals WP162020 22.5000 139.200 25 998 -1 1006 230 109 3 319
2020279N23139 2020 33 WP MM CHAN-HOM 2020-10-04 21:00:00 NR 22.6150 139.085 PROVISIONAL 1242 1236 P_____________ WP162020 22.6150 139.085 27 998 -1 1006 230 109 2 299
2020279N23139 2020 33 WP MM CHAN-HOM 2020-10-05 00:00:00 NR 22.6000 139.000 PROVISIONAL 1236 1236 O_____________ tcvitals WP162020 22.6000 139.000 29 999 -1 1006 230 109 2 206
2020279N23139 2020 33 WP MM CHAN-HOM 2020-10-05 03:00:00 NR 22.4050 138.970 PROVISIONAL 1254 1254 P_____________ WP162020 22.4050 138.970 32 998 -1 1005 265 89 3 0
2020279N23139 2020 33 WP MM CHAN-HOM 2020-10-05 06:00:00 NR 22.3000 139.000 PROVISIONAL 1264 1242 O_____________ tcvitals WP162020 22.3000 139.000 35 997 0 70 65 1004 300 70 2 33
2020279N23139 2020 33 WP MM CHAN-HOM 2020-10-05 09:00:00 NR 22.5900 139.100 PROVISIONAL 1242 1207 P_____________ WP162020 22.5900 139.100 35 997 0 98 77 1005 325 70 7 15
2020279N23139 2020 33 WP MM CHAN-HOM 2020-10-05 12:00:00 NR 23.0000 139.200 PROVISIONAL 1207 1178 O_____________ tcvitals WP162020 23.0000 139.200 35 997 0 126 90 1006 350 70 7 13
2020279N23139 2020 33 WP MM CHAN-HOM 2020-10-05 15:00:00 NR 23.2723 139.275 PROVISIONAL 1178 1153 P_____________ WP162020 23.2723 139.275 37 995 0 123 90 1005 325 70 5 2
2020279N23139 2020 33 WP MM CHAN-HOM 2020-10-05 18:00:00 NR 23.5000 139.200 PROVISIONAL 1153 1121 O_____________ tcvitals WP162020 23.5000 139.200 39 993 0 120 90 90 1004 300 70 6 316
2020279N23139 2020 33 WP MM CHAN-HOM 2020-10-05 21:00:00 NR 23.7155 138.808 PROVISIONAL 1121 1083 P_____________ WP162020 23.7155 138.808 39 993 0 125 92 97 1005 267 65 8 299
2020279N23139 2020 33 WP MM CHAN-HOM 2020-10-06 00:00:00 NR 23.9000 138.400 PROVISIONAL 1083 1059 O_____________ tcvitals WP162020 23.9000 138.400 39 994 0 130 95 105 1006 235 60 6 309
2020279N23139 2020 33 WP MM CHAN-HOM 2020-10-06 03:00:00 NR 24.0722 138.335 PROVISIONAL 1059 1051 P_____________ WP162020 24.0722 138.335 42 990 0 150 132 127 1005 240 65 3 344
2020279N23139 2020 33 WP MM CHAN-HOM 2020-10-06 06:00:00 NR 24.2000 138.300 PROVISIONAL 1051 1038 O_____________ tcvitals WP162020 24.2000 138.300 45 986 0 170 170 150 150 1004 245 70 3 303
2020279N23139 2020 33 WP MM CHAN-HOM 2020-10-06 09:00:00 NR 24.2425 138.045 PROVISIONAL 1032 1005 P_____________ WP162020 24.2425 138.045 49 983 0 172 170 140 162 1004 245 67 6 280
2020279N23139 2020 33 WP MM CHAN-HOM 2020-10-06 12:00:00 NR 24.3000 137.700 PROVISIONAL 1005 969 O_____________ tcvitals WP162020 24.3000 137.700 54 980 0 175 170 130 175 1004 245 65 7 291
2020279N23139 2020 33 WP MM CHAN-HOM 2020-10-06 15:00:00 NR 24.4774 137.373 PROVISIONAL 969 927 P_____________ WP162020 24.4774 137.373 54 980 0 172 167 130 172 1004 237 65 8 302
2020279N23139 2020 33 WP MM CHAN-HOM 2020-10-06 18:00:00 NR 24.7000 137.000 PROVISIONAL 927 886 O_____________ tcvitals WP162020 24.7000 137.000 54 981 0 170 165 130 170 1005 230 65 8 299
2020279N23139 2020 33 WP MM CHAN-HOM 2020-10-06 21:00:00 NR 24.8622 136.594 PROVISIONAL 886 840 P_____________ WP162020 24.8622 136.594 57 980 0 175 157 125 162 1005 220 65 9 296
2020279N23139 2020 33 WP MM CHAN-HOM 2020-10-07 00:00:00 NR 25.1000 136.100 PROVISIONAL 840 770 O_____________ tcvitals WP162020 25.1000 136.100 60 980 0 180 150 120 155 1006 210 65 12 303
2020279N23139 2020 33 WP MM CHAN-HOM 2020-10-07 03:00:00 NR 25.5429 135.458 PROVISIONAL 770 686 P_____________ WP162020 25.5429 135.458 62 978 0 175 150 123 145 1005 212 42 15 308
2020279N23139 2020 33 WP MM CHAN-HOM 2020-10-07 06:00:00 NR 26.0000 134.800 PROVISIONAL 686 631 O_____________ tcvitals WP162020 26.0000 134.800 64 976 1 170 150 126 135 1005 215 20 13 304
2020279N23139 2020 33 WP MM CHAN-HOM 2020-10-07 09:00:00 NR 26.2647 134.262 PROVISIONAL 631 585 P_____________ WP162020 26.2647 134.262 67 973 1 177 167 126 187 1005 215 20 10 299
2020279N23139 2020 33 WP MM CHAN-HOM 2020-10-07 12:00:00 NR 26.5000 133.800 PROVISIONAL 585 537 O_____________ tcvitals WP162020 26.5000 133.800 70 971 1 185 185 126 240 1005 215 20 10 305
2020279N23139 2020 33 WP MM CHAN-HOM 2020-10-07 15:00:00 NR 26.8350 133.340 PROVISIONAL 532 479 P_____________ WP162020 26.8350 133.340 70 970 1 185 185 126 240 1005 215 20 10 314
2020279N23139 2020 33 WP MM CHAN-HOM 2020-10-07 18:00:00 NR 27.2000 133.000 PROVISIONAL 479 440 O_____________ tcvitals WP162020 27.2000 133.000 70 970 1 185 185 126 240 1005 215 20 8 327
2020279N23139 2020 33 WP MM CHAN-HOM 2020-10-07 21:00:00 NR 27.5348 132.840 PROVISIONAL 440 401 P_____________ WP162020 27.5348 132.840 70 968 1 242 182 150 240 1005 215 25 7 346
2020279N23139 2020 33 WP MM CHAN-HOM 2020-10-08 00:00:00 NR 27.9000 132.800 PROVISIONAL 401 357 O_____________ tcvitals WP162020 27.9000 132.800 70 967 1 300 180 175 240 1005 215 30 8 355
2020279N23139 2020 33 WP MM CHAN-HOM 2020-10-08 03:00:00 NR 28.3499 132.748 PROVISIONAL 357 318 P_____________ WP162020 28.3499 132.748 75 964 1 302 187 172 237 1006 207 27 9 0
2020279N23139 2020 33 WP MM CHAN-HOM 2020-10-08 06:00:00 NR 28.8000 132.800 PROVISIONAL 318 294 O_____________ tcvitals WP162020 28.8000 132.800 80 962 1 305 195 170 235 1007 200 25 9 17
2020279N23139 2020 33 WP MM CHAN-HOM 2020-10-08 09:00:00 NR 29.1652 133.027 PROVISIONAL 289 279 P_____________ WP162020 29.1652 133.027 80 963 1 302 192 165 230 1008 200 22 8 32
2020279N23139 2020 33 WP MM CHAN-HOM 2020-10-08 12:00:00 NR 29.5000 133.300 PROVISIONAL 279 261 O_____________ tcvitals WP162020 29.5000 133.300 80 965 1 300 190 160 225 1010 200 20 9 30
2020279N23139 2020 33 WP MM CHAN-HOM 2020-10-08 15:00:00 NR 29.9099 133.517 PROVISIONAL 261 248 P_____________ WP162020 29.9099 133.517 80 965 1 300 190 157 225 1010 200 20 7 20
2020279N23139 2020 33 WP MM CHAN-HOM 2020-10-08 18:00:00 NR 30.2000 133.600 PROVISIONAL 248 233 O_____________ tcvitals WP162020 30.2000 133.600 80 965 1 300 190 155 225 1010 200 20 3 337
2020279N23139 2020 33 WP MM CHAN-HOM 2020-10-08 21:00:00 NR 30.1577 133.393 PROVISIONAL 233 224 P_____________ WP162020 30.1577 133.393 77 966 1 305 185 147 227 1010 187 17 4 254
2020279N23139 2020 33 WP MM CHAN-HOM 2020-10-09 00:00:00 NR 30.1000 133.200 PROVISIONAL 224 212 O_____________ tcvitals WP162020 30.1000 133.200 74 967 1 310 180 140 230 1010 175 14 2 345
2020279N23139 2020 33 WP MM CHAN-HOM 2020-10-09 03:00:00 NR 30.3700 133.332 PROVISIONAL 212 212 P_____________ WP162020 30.3700 133.332 72 969 1 310 165 133 230 1010 177 14 7 30
2020279N23139 2020 33 WP MM CHAN-HOM 2020-10-09 06:00:00 NR 30.7000 133.600 PROVISIONAL 223 214 O_____________ tcvitals WP162020 30.7000 133.600 70 971 1 310 150 126 230 1010 180 14 7 40
2020279N23139 2020 33 WP MM CHAN-HOM 2020-10-09 09:00:00 NR 30.8724 133.828 PROVISIONAL 214 211 P_____________ WP162020 30.8724 133.828 62 978 0 267 147 126 210 1011 185 17 5 55
2020279N23139 2020 33 WP MM CHAN-HOM 2020-10-09 12:00:00 NR 31.0000 134.100 PROVISIONAL 216 216 O_____________ tcvitals WP162020 31.0000 134.100 54 985 0 225 145 126 190 1012 190 20 6 64
2020279N23139 2020 33 WP MM CHAN-HOM 2020-10-09 15:00:00 NR 31.1199 134.421 PROVISIONAL 221 217 P_____________ WP162020 31.1199 134.421 52 986 0 215 140 133 190 1011 195 20 7 63
2020279N23139 2020 33 WP MM CHAN-HOM 2020-10-09 18:00:00 NR 31.3000 134.800 PROVISIONAL 219 197 O_____________ tcvitals WP162020 31.3000 134.800 51 987 0 205 135 140 190 1011 200 20 9 51
2020279N23139 2020 33 WP MM CHAN-HOM 2020-10-09 21:00:00 NR 31.6648 135.219 PROVISIONAL 191 156 P_____________ WP162020 31.6648 135.219 51 987 0 202 140 133 152 1011 200 30 10 48
2020279N23139 2020 33 WP MM CHAN-HOM 2020-10-10 00:00:00 NR 32.0000 135.700 PROVISIONAL 156 144 O_____________ tcvitals WP162020 32.0000 135.700 51 988 0 200 145 126 115 1011 200 40 10 63
2020279N23139 2020 33 WP MM CHAN-HOM 2020-10-10 03:00:00 NR 32.1099 136.235 PROVISIONAL 149 149 P_____________ WP162020 32.1099 136.235 51 988 0 207 135 126 125 1011 200 37 9 84
2020279N23139 2020 33 WP MM CHAN-HOM 2020-10-10 06:00:00 NR 32.1000 136.800 PROVISIONAL 172 172 O_____________ tcvitals WP162020 32.1000 136.800 51 988 0 215 126 126 135 1011 200 35 9 94
2020279N23139 2020 33 WP MM CHAN-HOM 2020-10-10 09:00:00 NR 32.0418 137.321 PROVISIONAL 209 209 P_____________ WP162020 32.0418 137.321 51 988 0 207 118 123 130 1010 195 35 9 96
2020279N23139 2020 33 WP MM CHAN-HOM 2020-10-10 12:00:00 NR 32.0000 137.900 PROVISIONAL 250 250 O_____________ tcvitals WP162020 32.0000 137.900 51 988 0 200 110 120 126 1010 190 35 11 87
2020279N23139 2020 33 WP MM CHAN-HOM 2020-10-10 15:00:00 NR 32.0930 138.649 PROVISIONAL 279 268 P_____________ WP162020 32.0930 138.649 51 987 0 192 107 117 123 1009 190 35 13 81
2020279N23139 2020 33 WP MM CHAN-HOM 2020-10-10 18:00:00 NR 32.2000 139.400 PROVISIONAL 273 273 O_____________ tcvitals WP162020 32.2000 139.400 51 987 0 185 105 115 120 1008 190 35 11 82
2020279N23139 2020 33 WP MM CHAN-HOM 2020-10-10 21:00:00 NR 32.2445 139.995 PROVISIONAL 289 289 P_____________ WP162020 32.2445 139.995 48 988 0 177 100 107 125 1008 187 35 9 90
2020279N23139 2020 33 WP MM CHAN-HOM 2020-10-11 00:00:00 NR 32.2000 140.500 PROVISIONAL 306 306 O_____________ tcvitals WP162020 32.2000 140.500 45 990 0 170 95 100 130 1008 185 35 9 104
2020279N23139 2020 33 WP MM CHAN-HOM 2020-10-11 03:00:00 NR 32.0374 140.988 PROVISIONAL 338 338 P_____________ WP162020 32.0374 140.988 40 993 0 137 92 97 130 1008 185 45 9 118
2020279N23139 2020 33 WP MM CHAN-HOM 2020-10-11 06:00:00 NR 31.8000 141.400 PROVISIONAL 372 372 O_____________ tcvitals WP162020 31.8000 141.400 35 997 0 105 90 95 130 1008 185 55 8 126
2020279N23139 2020 33 WP MM CHAN-HOM 2020-10-11 09:00:00 NR 31.5649 141.760 PROVISIONAL 408 408 P_____________ WP162020 31.5649 141.760 35 997 0 82 65 102 120 1008 185 55 7 134
2020279N23139 2020 33 WP MM CHAN-HOM 2020-10-11 12:00:00 NR 31.3000 142.000 PROVISIONAL 446 446 O_____________ tcvitals WP162020 31.3000 142.000 35 998 0 60 40 110 110 1008 185 55 6 154
2020279N23139 2020 33 WP MM CHAN-HOM 2020-10-11 15:00:00 NR 30.9924 142.087 PROVISIONAL 480 480 P_____________ WP162020 30.9924 142.087 35 996 0 55 55 95 100 1006 165 55 6 172
2020279N23139 2020 33 WP MM CHAN-HOM 2020-10-11 18:00:00 NR 30.7000 142.100 PROVISIONAL 511 511 O_____________ tcvitals WP162020 30.7000 142.100 35 995 0 50 70 80 90 1004 145 55 5 173
2020279N23139 2020 33 WP MM CHAN-HOM 2020-10-11 21:00:00 NR 30.5014 142.144 PROVISIONAL 531 531 P_____________ WP162020 30.5014 142.144 32 995 -1 1005 145 55 4 168
2020279N23139 2020 33 WP MM CHAN-HOM 2020-10-12 00:00:00 NR 30.3000 142.200 PROVISIONAL 556 556 O_____________ tcvitals WP162020 30.3000 142.200 29 996 -1 1006 145 55 5 167
2020279N23139 2020 33 WP MM CHAN-HOM 2020-10-12 03:00:00 NR 30.0114 142.281 PROVISIONAL 590 590 P_____________ WP162020 30.0114 142.281 26 997 -1 6 166
2020279N23139 2020 33 WP MM CHAN-HOM 2020-10-12 06:00:00 NR 29.6808 142.381 PROVISIONAL 625 625 I_____________ tcvitals WP162020 29.6808 142.381 24 999 -1 7 165
2020279N23139 2020 33 WP MM CHAN-HOM 2020-10-12 09:00:00 NR 29.3411 142.489 PROVISIONAL 670 670 P_____________ WP162020 29.3411 142.489 21 1001 -1 7 164
2020279N23139 2020 33 WP MM CHAN-HOM 2020-10-12 12:00:00 NR 29.0000 142.600 PROVISIONAL 705 O_____________ tcvitals WP162020 29.0000 142.600 19 1003 -1 1006 145 55 7 165

Digital Typhoon Data and Search

About IBTrACS Database

This database is a web-friendly format of International Best Track Archive for Climate Stewardship (IBTrACS), a global best track data archive curated by NOAA dating back to 1842.

Updated: 2021-10-08